METAR - Ísland

Uppfært síðast 25.02.2024 - kl. 16:16

SIGMET síðustu 6 klst.

Engin SIGMET skeyti bárust síðustu 6 klst.

METAR síðustu 3 klst

Frá og með 1. október 2021, munu brautarskilyrði ekki birtast í METAR skeytum.
Í staðinn mun ISAVIA gefa út SNOWTAM á síðunni SNOWTAM | Isavia.

Flugv.TímiSkeyti
BIAR2024-02-25 16.00METAR BIAR 251600Z 18005KT CAVOK M08/M13 Q1009
BIAR2024-02-25 15.00METAR BIAR 251500Z 18007KT CAVOK M11/M15 Q1009
BIAR2024-02-25 14.00METAR BIAR 251400Z 19004KT CAVOK M11/M16 Q1010
BIBD2024-02-25 16.00METAR BIBD 251600Z 20013KT 8000 VCSH SCT019 OVC022 M02/M05 Q1006
BIBD2024-02-25 15.00METAR BIBD 251500Z 23013KT 9999 VCSH SCT020 BKN028 M02/M06 Q1007
BIBD2024-02-25 14.00METAR BIBD 251400Z 20010KT 9999 VCSH SCT019 BKN026 M02/M06 Q1007
BIEG2024-02-25 16.00METAR BIEG 251600Z 21011KT CAVOK M06/M12 Q1010
BIEG2024-02-25 15.00METAR BIEG 251500Z 21013KT CAVOK M07/M11 Q1010
BIEG2024-02-25 14.00METAR BIEG 251400Z 21006KT CAVOK M05/M11 Q1010
BIGJ2024-02-25 13.24METAR BIGJ 251324Z 25009KT 9999 FEW022 M01/M07 Q1007
BIGR2024-02-25 16.00METAR BIGR 251600Z 18011KT CAVOK M02/M07 Q1007
BIGR2024-02-25 14.00METAR BIGR 251400Z 22012KT 9999 FEW026 M03/M08 Q1008
BIHN2024-02-25 16.00METAR BIHN 251600Z 32007KT 9999 FEW045 00/M11 Q1010
BIHN2024-02-25 15.00METAR BIHN 251500Z 32010KT 9999 FEW045 01/M14 Q1010
BIHN2024-02-25 14.00METAR BIHN 251400Z 30013KT 9999 FEW045 M00/M12 Q1010
BIHU2024-02-25 16.00METAR BIHU 251600Z 18015KT CAVOK M08/M13 Q1009
BIHU2024-02-25 15.00METAR BIHU 251500Z 18016KT CAVOK M09/M14 Q1009
BIIS2024-02-25 16.00METAR BIIS 251600Z 19016G26KT 9999 BKN030 01/M03 Q1004
BIIS2024-02-25 15.00METAR BIIS 251500Z VRB03KT 9999 BKN035 BKN055 M05/M08 Q1005
BIIS2024-02-25 14.00METAR BIIS 251400Z 22004KT 9999 FEW045 M06/M10 Q1006 RMK ARNARES 12018G24
BIKF2024-02-25 16.00METAR BIKF 251600Z 15016KT 0900 R19/P1500D -SN BKN007 OVC012 M01/M02 Q1009
BIKF2024-02-25 15.30METAR BIKF 251530Z 14017KT 9999 VCSH FEW003 BKN015 BKN260 M00/M02 Q1009
BIKF2024-02-25 15.00METAR BIKF 251500Z 15016KT 9999 SCT034 BKN260 00/M03 Q1009
BIKF2024-02-25 14.30METAR BIKF 251430Z 15015KT 9999 BKN035 BKN260 00/M03 Q1009
BIKF2024-02-25 14.00METAR BIKF 251400Z 15015KT 9999 SCT036 BKN260 00/M04 Q1009
BIKF2024-02-25 13.30METAR BIKF 251330Z 15014KT 9999 SCT036 BKN280 M00/M04 Q1009
BIRK2024-02-25 16.00METAR BIRK 251600Z 12005KT 9999 SCT026 BKN039 02/M03 Q1010
BIRK2024-02-25 15.00METAR BIRK 251500Z 12005KT 090V160 9999 SCT036 BKN065 01/M05 Q1010
BIRK2024-02-25 14.00METAR BIRK 251400Z 11005KT 9999 FEW026 BKN034 00/M08 Q1010
BITN2024-02-25 15.49METAR BITN 251549Z 19017KT CAVOK M05/M11 Q1009
BITN2024-02-25 15.00METAR BITN 251500Z 22017KT 9999 SCT040 M05/M10 Q1009
BITN2024-02-25 14.00METAR BITN 251400Z 23014KT 9999 BKN035 M05/M09 Q1009
BIVM2024-02-25 16.00METAR BIVM 251600Z 26002KT CAVOK 00/M07 Q1011
BIVM2024-02-25 15.00METAR BIVM 251500Z 30005KT CAVOK 01/M07 Q1011
BIVM2024-02-25 14.00METAR BIVM 251400Z 33005KT CAVOK 00/M08 Q1011
BIVO2024-02-25 16.00METAR BIVO 251600Z 24014KT CAVOK M08/M13 Q1010
BIVO2024-02-25 15.00METAR BIVO 251500Z 23012KT CAVOK M09/M13 Q1010
BIVO2024-02-25 14.00METAR BIVO 251400Z 23012KT CAVOK M09/M13 Q1010

Textaspár eru skrifaðar af vakthafandi veðurfræðingi á Veðurstofu Íslands.




Aðrir tengdir vefir



Þetta vefsvæði byggir á Eplica